Time;durP1;ratioP1;P1;durP2;ratioP2;P2;SDS_P1;SDS_P2;PMS_P1;PMS_P2;Temp;Humidity;BMP_temperature;BMP_pressure;BME280_temperature;BME280_humidity;BME280_pressure;Samples;Min_cycle;Max_cycle;Signal;HPM_P1;HPM_P2
2022/08/22 00:00:12;;;;;;;8.70;5.80;;;;;;;21.47;64.05;99962.65;106526;1271;25469;-81
2022/08/22 00:03:30;;;;;;;6.60;5.70;;;;;;;21.40;64.23;99961.32;106465;1270;22547;-80
2022/08/22 00:06:26;;;;;;;6.90;5.60;;;;;;;21.38;64.44;99958.20;106371;1271;25873;-78
2022/08/22 00:08:56;;;;;;;9.60;6.40;;;;;;;21.41;64.31;99962.70;106349;1271;22521;-76
2022/08/22 00:11:47;;;;;;;7.10;6.40;;;;;;;21.42;64.42;99964.61;106511;1271;22548;-78
2022/08/22 00:14:23;;;;;;;6.10;5.60;;;;;;;21.39;64.32;99972.63;106515;1271;22600;-78
2022/08/22 00:16:53;;;;;;;10.00;6.60;;;;;;;21.34;64.45;99970.63;106611;1271;22541;-73
2022/08/22 00:19:42;;;;;;;8.60;7.00;;;;;;;21.28;64.35;99967.59;106682;1271;25413;-78
2022/08/22 00:22:34;;;;;;;6.50;5.40;;;;;;;21.20;64.63;99972.20;106399;1271;22543;-77
2022/08/22 00:25:25;;;;;;;6.70;5.90;;;;;;;21.18;64.71;99976.23;106426;1271;22550;-74
2022/08/22 00:27:58;;;;;;;8.30;6.10;;;;;;;21.16;64.91;99973.87;106443;1271;22576;-71
2022/08/22 00:30:29;;;;;;;8.80;6.10;;;;;;;21.11;64.95;99973.44;106438;1271;25467;-74
2022/08/22 00:33:01;;;;;;;7.20;6.00;;;;;;;21.10;64.94;99976.72;106447;1270;22616;-76
2022/08/22 00:35:44;;;;;;;6.80;6.00;;;;;;;21.08;65.05;99974.86;106429;1271;24207;-76
2022/08/22 00:38:16;;;;;;;8.00;6.50;;;;;;;21.04;65.15;99979.91;106516;1271;25668;-74
2022/08/22 00:41:08;;;;;;;9.40;6.10;;;;;;;20.98;65.10;99977.27;106653;1270;22838;-75
2022/08/22 00:43:38;;;;;;;8.40;6.10;;;;;;;20.93;65.29;99976.27;106649;1271;22551;-78
2022/08/22 00:46:11;;;;;;;6.90;6.10;;;;;;;20.93;65.39;99979.48;106637;1271;22498;-75
2022/08/22 00:48:41;;;;;;;11.00;6.30;;;;;;;20.95;65.49;99978.85;107263;1271;22470;-76
2022/08/22 00:51:32;;;;;;;8.10;6.50;;;;;;;20.95;65.36;99981.33;107274;1271;22663;-76
2022/08/22 00:54:18;;;;;;;7.30;6.30;;;;;;;20.93;65.43;99977.16;106975;1269;22541;-72
2022/08/22 00:57:03;;;;;;;8.50;7.60;;;;;;;20.91;65.52;99979.58;106498;1271;22514;-79
2022/08/22 00:59:45;;;;;;;13.60;12.10;;;;;;;20.87;65.62;99981.60;106412;1271;22522;-75
2022/08/22 01:02:49;;;;;;;16.60;14.90;;;;;;;20.83;65.69;99981.16;106192;1274;22561;-76
2022/08/22 01:05:52;;;;;;;18.40;16.80;;;;;;;20.80;65.83;99983.83;106300;1274;25620;-76
2022/08/22 01:08:28;;;;;;;15.30;13.90;;;;;;;20.77;65.84;99983.45;105777;1279;22531;-71
2022/08/22 01:11:29;;;;;;;13.40;12.10;;;;;;;20.75;65.97;99982.80;105643;1279;22547;-75
2022/08/22 01:14:11;;;;;;;10.90;8.90;;;;;;;20.73;66.02;99987.21;105704;1280;22534;-75
2022/08/22 01:17:15;;;;;;;8.40;7.60;;;;;;;20.71;66.04;99988.27;105791;1280;25857;-74
2022/08/22 01:20:10;;;;;;;8.40;7.40;;;;;;;20.64;66.22;99988.27;105794;1277;24890;-75
2022/08/22 01:22:56;;;;;;;7.80;7.00;;;;;;;20.63;66.37;99981.38;106063;1276;23921;-75
2022/08/22 01:25:28;;;;;;;8.00;6.60;;;;;;;20.61;66.38;99985.08;106047;1276;22849;-74
2022/08/22 01:28:17;;;;;;;8.20;6.50;;;;;;;20.59;66.31;99987.52;106263;1271;22570;-74
2022/08/22 01:31:32;;;;;;;8.10;6.20;;;;;;;20.58;66.52;99989.73;106426;1271;22534;-74
2022/08/22 01:34:36;;;;;;;9.10;6.30;;;;;;;20.58;66.39;99989.51;106153;1271;22850;-76
2022/08/22 01:37:14;;;;;;;9.60;7.10;;;;;;;20.62;66.48;99994.30;106368;1271;25490;-83
2022/08/22 01:39:55;;;;;;;7.50;6.80;;;;;;;20.57;66.29;99989.59;106239;1271;24310;-75
2022/08/22 01:42:41;;;;;;;9.90;7.10;;;;;;;20.52;66.42;99991.48;106443;1271;25181;-77
2022/08/22 01:45:22;;;;;;;7.40;6.70;;;;;;;20.48;66.48;99992.80;106237;1271;24996;-74
2022/08/22 01:47:58;;;;;;;7.30;6.70;;;;;;;20.41;66.53;99990.13;106252;1271;24264;-75
2022/08/22 01:50:48;;;;;;;7.70;6.70;;;;;;;20.36;66.62;99992.38;106566;1271;22536;-76
2022/08/22 01:53:21;;;;;;;7.10;6.30;;;;;;;20.34;66.76;99993.05;106510;1269;22840;-80
2022/08/22 01:56:18;;;;;;;8.50;6.60;;;;;;;20.33;66.81;99987.02;106518;1271;22543;-75
2022/08/22 01:58:54;;;;;;;;;;;;;;;20.35;67.04;99985.99;106357;1271;22524;-72
2022/08/22 02:01:33;;;;;;;10.20;6.00;;;;;;;20.34;66.97;99983.17;106472;1271;25631;-72
2022/08/22 02:04:22;;;;;;;7.50;6.90;;;;;;;20.38;67.06;99983.69;106405;1271;23701;-74
2022/08/22 02:07:05;;;;;;;7.90;7.20;;;;;;;20.38;66.96;99985.47;106448;1271;22621;-74
2022/08/22 02:09:48;;;;;;;8.40;7.60;;;;;;;20.38;66.95;99983.33;106160;1271;22594;-74
2022/08/22 02:12:42;;;;;;;6.90;6.20;;;;;;;20.37;67.07;99985.89;106493;1271;24247;-72
2022/08/22 02:15:29;;;;;;;8.10;6.40;;;;;;;20.33;66.98;99986.85;106428;1271;23117;-80
2022/08/22 02:18:05;;;;;;;8.00;6.40;;;;;;;20.34;66.96;99989.11;106483;1271;25365;-78
2022/08/22 02:20:47;;;;;;;9.20;6.60;;;;;;;20.30;67.01;99988.94;106521;1271;24313;-77
2022/08/22 02:23:17;;;;;;;8.00;6.90;;;;;;;20.26;67.05;99983.78;106534;1271;25386;-76
2022/08/22 02:26:02;;;;;;;8.20;6.70;;;;;;;20.23;67.32;99987.93;106614;1271;24344;-78
2022/08/22 02:28:52;;;;;;;7.90;7.10;;;;;;;20.21;67.35;99985.84;106445;1271;22525;-74
2022/08/22 02:31:45;;;;;;;8.90;7.10;;;;;;;20.22;67.40;99980.63;106527;1271;26648;-78
2022/08/22 02:34:44;;;;;;;7.70;7.00;;;;;;;20.23;67.39;99982.34;106505;1271;23225;-77
2022/08/22 02:37:34;;;;;;;9.00;6.80;;;;;;;20.28;67.27;99984.80;106512;1271;22521;-76
2022/08/22 02:40:09;;;;;;;7.30;5.90;;;;;;;20.26;67.22;99987.04;106274;1271;23910;-77
2022/08/22 02:42:41;;;;;;;7.50;6.70;;;;;;;20.24;67.34;99988.04;106256;1271;25637;-76
2022/08/22 02:45:25;;;;;;;7.90;6.40;;;;;;;20.23;67.43;99986.66;106481;1271;22617;-79
2022/08/22 02:47:58;;;;;;;9.10;7.10;;;;;;;20.22;67.45;99987.09;106364;1269;24336;-71
2022/08/22 02:50:46;;;;;;;8.00;7.20;;;;;;;20.23;67.50;99987.00;106410;1271;22551;-73
2022/08/22 02:53:19;;;;;;;8.80;6.60;;;;;;;20.21;67.50;99988.01;106412;1271;22567;-71
2022/08/22 02:55:51;;;;;;;6.70;5.90;;;;;;;20.16;67.61;99990.08;105962;1274;22522;-77
2022/08/22 02:58:30;;;;;;;8.00;6.40;;;;;;;20.16;67.76;99995.10;105817;1274;23226;-76
2022/08/22 03:00:57;;;;;;;8.90;6.60;;;;;;;20.19;67.79;99998.67;106017;1274;24539;-73
2022/08/22 03:03:27;;;;;;;6.90;6.10;;;;;;;20.21;67.94;99998.59;106108;1274;22620;-74
2022/08/22 03:06:04;;;;;;;7.50;6.70;;;;;;;20.25;68.01;100002.64;106035;1274;22567;-77
2022/08/22 03:08:34;;;;;;;7.50;6.80;;;;;;;20.25;67.92;100002.27;105906;1274;24447;-75
2022/08/22 03:11:20;;;;;;;11.00;6.90;;;;;;;20.25;67.97;100006.92;105745;1274;22641;-77
2022/08/22 03:14:10;;;;;;;8.80;6.60;;;;;;;20.26;67.99;100005.62;105920;1271;25419;-76
2022/08/22 03:16:59;;;;;;;9.30;6.50;;;;;;;20.33;67.79;100012.23;105737;1274;23042;-74
2022/08/22 03:19:30;;;;;;;9.00;6.40;;;;;;;20.32;67.80;100012.13;105641;1280;23013;-74
2022/08/22 03:22:09;;;;;;;9.60;6.40;;;;;;;20.31;67.90;100008.94;105533;1279;22760;-73
2022/08/22 03:24:51;;;;;;;8.00;6.90;;;;;;;20.33;67.86;100010.09;105613;1279;22609;-72
2022/08/22 03:27:44;;;;;;;6.70;6.00;;;;;;;20.32;67.91;100005.64;105715;1279;25254;-70
2022/08/22 03:30:22;;;;;;;7.20;6.50;;;;;;;20.31;68.03;100011.27;105643;1280;22541;-74
2022/08/22 03:33:11;;;;;;;7.10;6.20;;;;;;;20.28;67.97;100015.16;105622;1279;22775;-72
2022/08/22 03:35:56;;;;;;;9.00;6.30;;;;;;;20.34;68.20;100019.89;105604;1277;22532;-76
2022/08/22 03:38:27;;;;;;;8.00;7.00;;;;;;;20.36;68.00;100021.52;106144;1271;22554;-74
2022/08/22 03:41:26;;;;;;;8.20;6.60;;;;;;;20.38;68.13;100020.70;106326;1271;22517;-73
2022/08/22 03:44:30;;;;;;;8.00;6.90;;;;;;;20.40;67.87;100022.86;106205;1271;22570;-77
2022/08/22 03:47:15;;;;;;;7.20;6.50;;;;;;;20.38;67.90;100020.34;106452;1271;24123;-75
2022/08/22 03:50:07;;;;;;;7.30;6.60;;;;;;;20.38;67.75;100016.95;106331;1271;22541;-74
2022/08/22 03:53:06;;;;;;;7.00;5.90;;;;;;;20.40;67.86;100011.29;106454;1271;24326;-76
2022/08/22 03:55:37;;;;;;;6.60;6.00;;;;;;;20.44;67.79;100011.27;106413;1271;22521;-75
2022/08/22 03:58:24;;;;;;;6.40;5.70;;;;;;;20.48;67.75;100012.45;106343;1271;22525;-76
2022/08/22 04:01:00;;;;;;;6.90;6.20;;;;;;;20.51;67.63;100012.13;106364;1269;22697;-73
2022/08/22 04:03:40;;;;;;;8.30;7.20;;;;;;;20.47;67.46;100012.35;106410;1271;22675;-71
2022/08/22 04:06:20;;;;;;;10.50;7.20;;;;;;;20.42;67.51;100022.29;106368;1271;22521;-71
2022/08/22 04:08:56;;;;;;;8.20;7.00;;;;;;;20.39;67.78;100022.95;106383;1271;22626;-78
2022/08/22 04:11:53;;;;;;;6.80;6.20;;;;;;;20.40;67.78;100023.41;106426;1271;25353;-77
2022/08/22 04:14:28;;;;;;;6.50;5.90;;;;;;;20.45;67.89;100028.20;106367;1271;22530;-74
2022/08/22 04:17:34;;;;;;;8.40;6.50;;;;;;;20.47;67.86;100035.59;106285;1271;26901;-75
2022/08/22 04:20:10;;;;;;;7.80;6.20;;;;;;;20.47;67.79;100038.44;106355;1271;25531;-71
2022/08/22 04:22:40;;;;;;;9.00;7.20;;;;;;;20.46;67.78;100040.45;106436;1271;23186;-78
2022/08/22 04:25:26;;;;;;;8.30;7.00;;;;;;;20.48;67.67;100049.45;106203;1274;22815;-74
2022/08/22 04:28:08;;;;;;;6.90;6.20;;;;;;;20.45;67.67;100047.50;105409;1280;22838;-74
2022/08/22 04:30:47;;;;;;;11.20;7.30;;;;;;;20.41;67.68;100043.45;106036;1280;25370;-74
2022/08/22 04:33:24;;;;;;;9.20;7.40;;;;;;;20.40;67.66;100046.15;106006;1280;22540;-73
2022/08/22 04:36:07;;;;;;;7.80;6.40;;;;;;;20.40;67.79;100044.16;105753;1282;25393;-73
2022/08/22 04:39:12;;;;;;;9.60;6.20;;;;;;;20.39;67.80;100040.67;106244;1280;24233;-73
2022/08/22 04:41:55;;;;;;;8.70;6.70;;;;;;;20.40;67.89;100045.47;105712;1279;25288;-72
2022/08/22 04:44:48;;;;;;;11.20;6.80;;;;;;;20.42;67.91;100043.56;105909;1277;22544;-75
2022/08/22 04:47:37;;;;;;;7.60;6.90;;;;;;;20.42;67.74;100047.48;106397;1271;25364;-74
2022/08/22 04:50:13;;;;;;;11.30;6.90;;;;;;;20.43;67.87;100047.78;106345;1271;25313;-74
2022/08/22 04:53:18;;;;;;;9.10;6.70;;;;;;;20.45;67.87;100053.21;106536;1271;22590;-76
2022/08/22 04:56:10;;;;;;;10.00;6.70;;;;;;;20.47;67.91;100057.75;106524;1271;22545;-74
2022/08/22 04:58:57;;;;;;;12.40;7.20;;;;;;;20.44;67.74;100061.12;106393;1271;25356;-74
2022/08/22 05:01:45;;;;;;;8.40;6.20;;;;;;;20.42;67.90;100059.11;106614;1271;24240;-73
2022/08/22 05:04:21;;;;;;;10.10;6.90;;;;;;;20.43;67.97;100057.09;106458;1271;26503;-72
2022/08/22 05:07:11;;;;;;;7.70;6.80;;;;;;;20.44;68.03;100054.90;106408;1270;25448;-74
2022/08/22 05:09:43;;;;;;;10.10;6.50;;;;;;;20.45;68.00;100059.30;106536;1271;22545;-73
2022/08/22 05:12:14;;;;;;;9.00;6.50;;;;;;;20.43;68.09;100059.79;106424;1271;24371;-73
2022/08/22 05:15:22;;;;;;;10.00;7.00;;;;;;;20.48;68.36;100059.33;106639;1271;24226;-73
2022/08/22 05:17:52;;;;;;;11.00;7.00;;;;;;;20.55;68.16;100060.02;106434;1271;22697;-76
2022/08/22 05:20:24;;;;;;;12.90;7.30;;;;;;;20.61;68.20;100054.64;106388;1271;22704;-71
2022/08/22 05:23:06;;;;;;;11.80;6.40;;;;;;;20.65;67.99;100059.06;106286;1271;22546;-73
2022/08/22 05:25:47;;;;;;;13.10;8.20;;;;;;;20.70;68.07;100061.10;106383;1271;25291;-73
2022/08/22 05:28:37;;;;;;;7.60;6.90;;;;;;;20.76;68.09;100058.30;106340;1271;22591;-72
2022/08/22 05:31:14;;;;;;;9.20;6.80;;;;;;;20.85;67.99;100062.61;106264;1271;22800;-71
2022/08/22 05:33:46;;;;;;;11.30;7.20;;;;;;;20.89;67.72;100064.86;106351;1271;24438;-70
2022/08/22 05:36:27;;;;;;;11.60;7.50;;;;;;;20.93;67.75;100068.27;106269;1271;25388;-70
2022/08/22 05:38:59;;;;;;;11.90;7.30;;;;;;;20.96;67.62;100075.95;106246;1271;22541;-71
2022/08/22 05:41:31;;;;;;;9.90;7.10;;;;;;;20.97;67.50;100073.63;106348;1271;23202;-73
2022/08/22 05:43:58;;;;;;;11.10;6.80;;;;;;;21.00;67.58;100074.82;106184;1271;22687;-69
2022/08/22 05:46:40;;;;;;;8.00;7.00;;;;;;;21.06;67.49;100074.17;106340;1271;25579;-71
2022/08/22 05:49:21;;;;;;;8.10;6.50;;;;;;;21.07;67.31;100072.30;106282;1270;24560;-70
2022/08/22 05:52:15;;;;;;;10.30;7.50;;;;;;;21.09;67.40;100074.18;106364;1270;22674;-70
2022/08/22 05:54:53;;;;;;;8.50;6.80;;;;;;;21.14;67.49;100076.94;106277;1271;22632;-68
2022/08/22 05:57:35;;;;;;;11.20;6.60;;;;;;;21.13;67.40;100074.44;106455;1271;23191;-68
2022/08/22 06:00:17;;;;;;;15.50;6.80;;;;;;;21.17;67.45;100071.88;106194;1271;22736;-69
2022/08/22 06:03:13;;;;;;;13.70;7.50;;;;;;;21.22;67.12;100069.81;106429;1271;24828;-71
2022/08/22 06:05:46;;;;;;;14.40;6.10;;;;;;;21.30;67.38;100068.27;106456;1271;25665;-74
2022/08/22 06:08:30;;;;;;;12.50;6.60;;;;;;;21.37;67.24;100067.14;106149;1271;24280;-68
2022/08/22 06:11:06;;;;;;;10.40;6.90;;;;;;;21.44;67.20;100065.84;106353;1271;24386;-71
2022/08/22 06:13:38;;;;;;;12.30;7.10;;;;;;;21.49;66.93;100067.15;106371;1271;22563;-72
2022/08/22 06:16:12;;;;;;;14.90;7.60;;;;;;;21.55;67.13;100065.20;106492;1271;22606;-75
2022/08/22 06:18:42;;;;;;;8.50;6.60;;;;;;;21.60;66.82;100069.33;106424;1270;24343;-70
2022/08/22 06:21:17;;;;;;;9.80;6.90;;;;;;;21.65;66.60;100068.91;106383;1271;24386;-69
2022/08/22 06:23:46;;;;;;;10.20;7.20;;;;;;;21.69;66.35;100069.55;106332;1271;25447;-71
2022/08/22 06:26:15;;;;;;;10.50;6.50;;;;;;;21.70;66.21;100065.70;106339;1271;24223;-72
2022/08/22 06:28:50;;;;;;;8.90;6.40;;;;;;;21.73;66.06;100064.66;106279;1271;22528;-72
2022/08/22 06:31:26;;;;;;;11.30;6.70;;;;;;;21.76;66.11;100069.28;106372;1271;25236;-70
2022/08/22 06:34:03;;;;;;;13.10;6.30;;;;;;;21.80;66.09;100064.65;106136;1271;22673;-70
2022/08/22 06:36:33;;;;;;;11.80;6.40;;;;;;;21.88;66.26;100065.76;106202;1271;22548;-70
2022/08/22 06:39:19;;;;;;;12.80;6.60;;;;;;;21.94;65.98;100062.48;106271;1271;24296;-71
2022/08/22 06:41:52;;;;;;;13.20;6.20;;;;;;;22.02;65.95;100071.16;106445;1271;22525;-70
2022/08/22 06:44:24;;;;;;;10.10;6.80;;;;;;;22.08;65.75;100070.61;105594;1277;23976;-70
2022/08/22 06:46:57;;;;;;;10.50;6.40;;;;;;;22.14;65.59;100073.67;106031;1275;22572;-72
2022/08/22 06:49:26;;;;;;;10.60;6.20;;;;;;;22.18;65.39;100075.35;106038;1273;24546;-70
2022/08/22 06:52:01;;;;;;;9.90;6.70;;;;;;;22.25;65.24;100077.27;105904;1274;24498;-70
2022/08/22 06:55:09;;;;;;;9.80;6.20;;;;;;;22.35;65.18;100078.23;102368;1310;560889;-72
2022/08/22 06:57:52;;;;;;;10.20;6.60;;;;;;;22.39;64.95;100077.65;104935;1287;22637;-70
2022/08/22 07:00:19;;;;;;;10.50;5.70;;;;;;;22.44;64.80;100081.10;105054;1284;24104;-73
2022/08/22 07:02:52;;;;;;;9.70;5.60;;;;;;;22.48;64.74;100081.55;105192;1284;22852;-71
2022/08/22 07:05:23;;;;;;;11.30;5.80;;;;;;;22.54;64.63;100080.27;105109;1284;25419;-72
2022/08/22 07:07:50;;;;;;;9.10;5.80;;;;;;;22.63;64.51;100083.89;104121;1284;1482884;-72
2022/08/22 07:10:20;;;;;;;9.00;5.90;;;;;;;22.72;64.29;100081.52;105551;1278;24245;-73
2022/08/22 07:12:50;;;;;;;7.10;5.10;;;;;;;22.81;64.06;100082.55;106404;1271;26555;-72
2022/08/22 07:15:33;;;;;;;14.40;6.60;;;;;;;22.89;64.06;100076.30;106106;1274;22660;-71
2022/08/22 07:18:05;;;;;;;14.70;6.50;;;;;;;22.98;63.86;100076.39;106100;1271;23939;-70
2022/08/22 07:20:37;;;;;;;11.60;5.80;;;;;;;23.06;63.42;100074.46;106046;1271;22547;-85
2022/08/22 07:23:32;;;;;;;14.20;6.80;;;;;;;23.08;63.44;100072.52;106293;1271;25301;-70
2022/08/22 07:26:20;;;;;;;10.20;5.80;;;;;;;23.18;63.31;100077.10;106210;1271;22551;-72
2022/08/22 07:28:56;;;;;;;12.00;6.40;;;;;;;23.22;63.31;100078.06;106230;1271;22665;-72
2022/08/22 07:31:41;;;;;;;12.00;5.90;;;;;;;23.26;63.36;100082.48;106188;1272;22693;-70
2022/08/22 07:34:45;;;;;;;9.60;6.30;;;;;;;23.31;63.46;100081.97;106160;1271;23944;-73
2022/08/22 07:37:24;;;;;;;13.30;6.30;;;;;;;23.37;63.48;100086.00;106127;1271;25256;-73
2022/08/22 07:39:57;;;;;;;12.10;6.10;;;;;;;23.41;63.27;100087.42;106218;1271;25359;-73
2022/08/22 07:42:44;;;;;;;9.90;6.10;;;;;;;23.45;63.15;100088.58;106359;1271;25413;-73
2022/08/22 07:45:25;;;;;;;18.40;6.00;;;;;;;23.49;63.18;100088.30;106373;1271;25327;-71
2022/08/22 07:48:16;;;;;;;16.90;6.50;;;;;;;23.56;62.97;100092.33;106176;1271;24374;-74
2022/08/22 07:50:54;;;;;;;11.40;6.10;;;;;;;23.70;63.07;100100.88;106252;1271;22623;-75
2022/08/22 07:53:38;;;;;;;9.50;5.50;;;;;;;23.81;62.74;100103.71;106317;1271;25342;-72
2022/08/22 07:56:10;;;;;;;12.40;5.90;;;;;;;23.95;62.54;100104.79;106270;1271;25259;-73
2022/08/22 07:58:40;;;;;;;12.20;6.00;;;;;;;24.08;62.41;100105.30;106199;1272;24237;-71
2022/08/22 08:01:10;;;;;;;13.60;6.10;;;;;;;24.19;62.12;100105.45;106214;1271;23945;-69
2022/08/22 08:03:37;;;;;;;11.70;6.40;;;;;;;24.33;62.03;100102.70;105783;1278;25466;-72
2022/08/22 08:06:07;;;;;;;14.40;5.40;;;;;;;24.44;61.66;100100.45;105726;1277;25447;-70
2022/08/22 08:08:43;;;;;;;11.10;6.10;;;;;;;24.54;61.50;100099.56;105755;1278;23971;-71
2022/08/22 08:11:15;;;;;;;9.10;5.50;;;;;;;24.66;60.96;100094.00;105902;1277;24262;-71
2022/08/22 08:13:45;;;;;;;12.90;5.80;;;;;;;24.75;60.57;100085.61;105367;1284;22572;-72
2022/08/22 08:16:19;;;;;;;9.10;5.80;;;;;;;24.90;60.16;100096.48;105452;1283;24398;-72
2022/08/22 08:18:48;;;;;;;8.20;5.00;;;;;;;25.01;59.92;100097.13;105391;1284;25369;-72
2022/08/22 08:21:48;;;;;;;11.00;5.50;;;;;;;25.13;59.60;100096.57;105659;1280;26533;-72
2022/08/22 08:24:21;;;;;;;14.60;5.10;;;;;;;25.17;59.14;100095.00;105827;1284;22726;-71
2022/08/22 08:29:57;;;;;;;8.30;5.70;;;;;;;25.39;59.10;100094.96;105731;1282;26782;-72
2022/08/22 08:32:29;;;;;;;10.90;6.00;;;;;;;25.48;58.78;100095.91;105794;1278;22544;-74
2022/08/22 08:34:56;;;;;;;12.80;5.80;;;;;;;25.49;58.66;100092.55;106010;1278;25635;-73
2022/08/22 08:37:42;;;;;;;9.90;6.20;;;;;;;25.58;58.24;100090.08;105778;1277;24259;-71
2022/08/22 08:40:24;;;;;;;8.20;5.20;;;;;;;25.66;58.06;100091.64;105770;1278;22887;-73
2022/08/22 08:46:13;;;;;;;7.60;4.60;;;;;;;25.93;56.93;100089.95;106285;1271;25304;-71
2022/08/22 08:49:18;;;;;;;12.70;5.00;;;;;;;26.07;56.48;100087.08;105793;1274;25257;-73
2022/08/22 08:51:55;;;;;;;11.80;5.10;;;;;;;26.16;56.14;100087.64;106258;1271;25476;-71
2022/08/22 08:54:45;;;;;;;11.70;5.30;;;;;;;26.28;55.99;100088.90;106195;1271;25244;-72
2022/08/22 08:57:28;;;;;;;8.30;5.00;;;;;;;26.30;55.71;100089.41;106328;1271;25254;-71
2022/08/22 09:00:07;;;;;;;8.10;4.60;;;;;;;26.31;55.34;100086.09;106208;1271;22817;-72
2022/08/22 09:02:46;;;;;;;9.80;4.60;;;;;;;26.28;54.98;100088.86;106155;1271;25411;-71
2022/08/22 09:05:43;;;;;;;7.90;4.30;;;;;;;26.19;54.95;100090.59;105937;1271;25312;-71
2022/08/22 09:08:43;;;;;;;9.80;5.40;;;;;;;26.24;54.95;100089.48;106189;1271;26517;-72
2022/08/22 09:11:35;;;;;;;9.80;5.20;;;;;;;26.37;54.87;100089.75;106185;1269;23034;-71
2022/08/22 09:14:37;;;;;;;8.80;4.60;;;;;;;26.40;54.53;100089.15;106025;1271;22732;-69
2022/08/22 09:17:36;;;;;;;5.00;4.10;;;;;;;26.46;53.96;100087.96;106058;1271;25403;-70
2022/08/22 09:20:24;;;;;;;6.90;4.80;;;;;;;26.54;53.65;100091.48;106277;1271;24228;-70
2022/08/22 09:23:25;;;;;;;6.60;3.60;;;;;;;26.61;53.28;100082.94;106119;1271;23928;-70
2022/08/22 09:26:27;;;;;;;6.20;4.20;;;;;;;26.77;52.98;100082.58;106139;1271;22630;-71
2022/08/22 09:29:06;;;;;;;7.80;4.20;;;;;;;27.02;52.84;100087.60;106242;1271;24221;-70
2022/08/22 09:31:58;;;;;;;8.60;4.40;;;;;;;27.03;52.51;100087.55;106008;1274;24416;-71
2022/08/22 09:34:40;;;;;;;5.40;4.30;;;;;;;27.12;52.35;100083.33;106256;1271;25257;-72
2022/08/22 09:37:19;;;;;;;10.90;4.10;;;;;;;27.32;51.98;100081.17;105791;1278;22766;-71
2022/08/22 09:40:05;;;;;;;7.10;4.10;;;;;;;27.41;51.72;100082.70;105663;1278;24319;-73
2022/08/22 09:42:51;;;;;;;12.50;4.60;;;;;;;27.40;51.16;100083.38;105740;1277;26520;-74
2022/08/22 09:45:36;;;;;;;8.10;3.90;;;;;;;27.49;51.02;100080.60;105573;1277;22725;-73
2022/08/22 09:48:09;;;;;;;6.30;3.60;;;;;;;27.43;50.95;100079.63;105931;1277;22547;-73
2022/08/22 09:50:44;;;;;;;4.20;3.80;;;;;;;27.38;51.10;100076.98;105878;1277;22547;-74
2022/08/22 09:53:45;;;;;;;8.90;4.40;;;;;;;27.34;51.16;100078.14;105901;1278;22534;-74
2022/08/22 09:56:22;;;;;;;5.70;3.70;;;;;;;27.44;51.02;100078.89;106152;1271;25369;-73
2022/08/22 09:58:59;;;;;;;6.50;3.50;;;;;;;27.43;50.40;100078.27;106348;1271;22614;-73
2022/08/22 10:01:38;;;;;;;7.70;4.50;;;;;;;27.35;50.36;100071.67;106225;1271;22656;-72
2022/08/22 10:04:13;;;;;;;6.60;3.50;;;;;;;27.29;50.54;100069.84;106298;1271;24314;-73
2022/08/22 10:07:12;;;;;;;8.90;4.40;;;;;;;27.23;50.42;100072.92;106388;1271;22699;-79
2022/08/22 10:10:03;;;;;;;7.20;3.70;;;;;;;27.17;50.55;100071.05;106312;1271;22728;-70
2022/08/22 10:12:41;;;;;;;8.20;4.40;;;;;;;27.17;50.41;100072.96;106341;1271;24256;-72
2022/08/22 10:15:28;;;;;;;4.70;3.80;;;;;;;27.22;50.24;100073.15;106340;1271;26196;-71
2022/08/22 10:17:58;;;;;;;7.20;4.30;;;;;;;27.34;50.01;100071.89;105878;1277;24298;-73
2022/08/22 10:21:03;;;;;;;8.90;4.40;;;;;;;27.44;50.06;100076.35;105925;1277;24691;-70
2022/08/22 10:23:54;;;;;;;4.70;3.90;;;;;;;27.44;49.99;100077.80;105293;1277;23976;-71
2022/08/22 10:26:28;;;;;;;4.90;3.80;;;;;;;27.37;50.02;100078.90;105892;1274;22538;-72
2022/08/22 10:29:34;;;;;;;7.20;4.20;;;;;;;27.31;50.10;100075.23;106076;1274;23963;-72
2022/08/22 10:32:18;;;;;;;4.50;4.20;;;;;;;27.30;50.17;100076.26;105751;1277;22527;-70
2022/08/22 10:34:58;;;;;;;6.50;3.70;;;;;;;27.27;50.31;100081.42;105958;1274;27197;-72
2022/08/22 10:37:35;;;;;;;7.50;3.90;;;;;;;27.24;50.33;100082.00;106113;1271;22555;-72
2022/08/22 10:40:04;;;;;;;6.00;3.70;;;;;;;27.23;50.28;100082.30;106293;1270;22546;-74
2022/08/22 10:42:38;;;;;;;4.60;3.00;;;;;;;27.18;50.39;100081.73;106144;1271;25646;-74
2022/08/22 10:45:32;;;;;;;4.20;3.50;;;;;;;27.13;50.53;100080.75;106033;1271;25262;-73
2022/08/22 10:48:44;;;;;;;6.60;3.50;;;;;;;27.02;50.26;100082.75;106201;1271;26520;-73
2022/08/22 10:51:20;;;;;;;6.30;3.70;;;;;;;26.88;50.07;100080.43;105818;1271;22789;-68
2022/08/22 10:54:09;;;;;;;7.70;3.60;;;;;;;26.82;50.17;100082.88;106105;1271;25466;-81
2022/08/22 10:57:20;;;;;;;3.90;3.50;;;;;;;26.74;50.17;100085.14;106083;1271;24472;-71
2022/08/22 11:00:09;;;;;;;8.90;4.10;;;;;;;26.68;50.68;100082.59;105934;1271;22534;-74
2022/08/22 11:02:38;;;;;;;6.10;3.80;;;;;;;26.66;50.83;100083.16;106068;1271;22714;-69
2022/08/22 11:05:35;;;;;;;6.70;4.00;;;;;;;26.57;50.75;100075.91;106351;1271;25245;-72
2022/08/22 11:08:27;;;;;;;5.50;3.90;;;;;;;26.50;50.80;100084.25;106295;1270;22834;-71
2022/08/22 11:11:36;;;;;;;4.00;3.70;;;;;;;26.42;50.97;100084.69;106319;1271;22561;-72
2022/08/22 11:14:03;;;;;;;6.80;4.30;;;;;;;26.34;51.02;100082.27;106329;1271;26523;-71
2022/08/22 11:16:51;;;;;;;6.20;4.30;;;;;;;26.28;51.05;100087.22;106262;1271;25348;-71
2022/08/22 11:19:50;;;;;;;8.30;4.10;;;;;;;26.20;51.38;100081.90;106278;1271;22549;-73
2022/08/22 11:22:19;;;;;;;5.60;3.80;;;;;;;26.14;51.62;100085.94;106510;1271;22586;-71
2022/08/22 11:25:12;;;;;;;9.70;4.50;;;;;;;26.08;52.11;100088.60;106286;1271;22668;-72
2022/08/22 11:27:58;;;;;;;6.70;4.20;;;;;;;26.04;52.29;100089.48;106121;1271;22580;-73
2022/08/22 11:30:30;;;;;;;7.30;4.10;;;;;;;25.98;52.49;100091.73;106283;1271;24237;-72
2022/08/22 11:33:27;;;;;;;6.80;4.30;;;;;;;25.97;52.62;100090.74;106175;1271;25376;-72
2022/08/22 11:36:46;;;;;;;8.20;4.70;;;;;;;25.97;52.67;100089.85;106213;1271;25267;-72
2022/08/22 11:39:26;;;;;;;10.30;4.80;;;;;;;26.04;52.62;100088.55;106059;1271;24228;-73
2022/08/22 11:42:05;;;;;;;8.40;3.90;;;;;;;26.16;52.38;100086.16;106330;1271;22537;-87
2022/08/22 11:44:53;;;;;;;8.60;3.90;;;;;;;26.30;52.62;100089.04;106233;1271;25414;-74
2022/08/22 11:47:24;;;;;;;10.10;4.50;;;;;;;26.55;52.23;100086.75;106098;1273;22859;-73
2022/08/22 11:50:24;;;;;;;7.30;3.80;;;;;;;26.68;52.05;100086.23;106301;1271;23536;-72
2022/08/22 11:53:18;;;;;;;6.20;3.80;;;;;;;26.75;51.57;100088.35;106121;1271;25264;-70
2022/08/22 11:56:09;;;;;;;7.10;4.10;;;;;;;26.88;51.42;100087.84;106292;1271;25312;-71
2022/08/22 11:59:11;;;;;;;5.40;3.90;;;;;;;27.03;51.41;100089.66;106386;1271;25245;-72
2022/08/22 12:02:03;;;;;;;8.20;4.30;;;;;;;27.14;51.39;100094.36;105907;1276;22587;-72
2022/08/22 12:04:43;;;;;;;7.00;4.60;;;;;;;27.25;51.23;100088.65;106319;1271;24481;-72
2022/08/22 12:07:16;;;;;;;5.20;3.60;;;;;;;27.33;51.02;100094.11;106377;1271;22614;-72
2022/08/22 12:09:54;;;;;;;7.50;4.00;;;;;;;27.38;50.73;100093.63;106173;1271;24398;-71
2022/08/22 12:12:32;;;;;;;4.90;3.90;;;;;;;27.44;50.64;100091.34;106323;1271;22551;-73
2022/08/22 12:15:25;;;;;;;7.60;4.70;;;;;;;27.48;50.35;100090.51;106455;1271;22689;-72
2022/08/22 12:18:22;;;;;;;6.30;4.00;;;;;;;27.53;50.17;100087.66;106380;1270;25245;-76
2022/08/22 12:21:15;;;;;;;7.50;3.60;;;;;;;27.59;49.53;100090.46;106716;1271;25370;-74
2022/08/22 12:23:44;;;;;;;11.20;3.80;;;;;;;27.64;48.87;100094.75;107044;1271;25251;-73
2022/08/22 12:26:43;;;;;;;9.00;4.00;;;;;;;27.66;48.88;100090.74;106602;1271;24247;-73
2022/08/22 12:29:19;;;;;;;5.30;3.70;;;;;;;27.70;49.03;100092.77;106996;1271;22531;-71
2022/08/22 12:32:11;;;;;;;8.00;4.00;;;;;;;27.68;48.84;100090.92;107203;1269;26608;-73
2022/08/22 12:35:08;;;;;;;6.00;3.90;;;;;;;27.64;49.20;100089.67;106420;1271;22571;-72